Dati Storici

Data ora Umidita' aria (%) Temperatura aria (°C) Rad globale (W/m²) Gonioanemometro (°) Tacoanemometro (m/s) Pioggia (mm)
04-11-2012 13:30 97.4 % 12.644 48.939 33.28 1.184 0
04-11-2012 13:20 97.3 % 12.597 50.794 9.816 1.897 0
04-11-2012 13:10 97.2 % 12.516 48.928 44.398 1.721 0
04-11-2012 13:00 97.1 % 12.474 38.794 32.692 1.679 1
04-11-2012 12:50 97 % 12.454 33.783 53.99 1.471 0
04-11-2012 12:40 97 % 12.449 27.065 62.748 0.762 0
04-11-2012 12:30 96.9 % 12.411 48.928 30.218 2.18 0
04-11-2012 12:20 96.8 % 12.411 32.904 355.783 0.982 0
04-11-2012 12:10 96.6 % 12.343 67.795 27.266 1.92 0
04-11-2012 12:00 96.5 % 12.288 50.682 31.338 1.034 0
04-11-2012 11:50 96.4 % 12.256 48.547 50.596 0.993 0
04-11-2012 11:40 96.4 % 12.223 35.222 99.258 0.709 1
04-11-2012 11:30 96.2 % 12.151 48.839 17.756 4.436 0
04-11-2012 11:20 96 % 12.175 41.309 41.932 0.704 1
04-11-2012 11:10 96 % 12.172 30.012 53.535 0.496 0
04-11-2012 11:00 96 % 12.188 41.284 2.408 0.902 0
04-11-2012 10:50 95.9 % 12.072 70.607 36.267 1.122 0
04-11-2012 10:40 95.8 % 12.006 55.416 83.975 1.264 0
04-11-2012 10:30 95.6 % 11.886 54.617 21.808 3.169 0
04-11-2012 10:20 95.3 % 11.811 40.217 37.575 1.864 0

I dati sono presentati in modo automatico a scopo informativo. In seguito a verifica i dati possono subire modifiche o essere invalidati e non riportati negli archivi definitivi.